BCS776 HTKJ-SKMZ
Flight info
| Callsign | BCS776 |
|---|---|
| Flight time | N/A |
| Altitude | 28000 |
| Route | AVATU2D AVATU UB531 KGI UL434 ERKAR/N0510F300 UL434 NLY UR984 DLA UP685 LIREX UY57 XUMGA/N0505F320 UY57 SESIG UR979 AD UB600 ROB UY366 SOLTU DCT 06N018W 06N023W DCT IRAKU/N0496F340 DCT 06N031W DCT EGIMI UL695 ARUSI DCT 06N041W 07N045W DCT KONTI CR10 CYR/N0489F360 UG443 TIM UP549 BNS UP533 KIKAS UW44 BUV DCT NIRSO NIRSO1B |
| Aircraft | B77L/H-SDE1E2E3FGHIJ2J3J4J5M1RWXY/LB1D1 |
Departure
| Time | 2026-05-04 22:35 |
|---|---|
| Airport | Kilimanjaro International Airport (HTKJ) |
Arrival
| Time | N/A |
|---|---|
| Airport | La Nubia Airport (SKMZ) |
| Time | Latitude | Longitude | Altitude | Speed | Heading |
|---|---|---|---|---|---|
| 2026-05-04 22:29 | -3.42541 | 37.06511 | 2940 ft | 0 kts | 87° |
| 2026-05-04 22:30 | -3.42542 | 37.06524 | 2932 ft | 4 kts | 99° |
| 2026-05-04 22:30 | -3.42563 | 37.06566 | 2929 ft | 9 kts | 134° |
| 2026-05-04 22:30 | -3.42636 | 37.06593 | 2939 ft | 14 kts | 172° |
| 2026-05-04 22:31 | -3.42704 | 37.06583 | 2932 ft | 7 kts | 223° |
| 2026-05-04 22:31 | -3.42724 | 37.06535 | 2931 ft | 8 kts | 261° |
| 2026-05-04 22:31 | -3.42728 | 37.06481 | 2941 ft | 8 kts | 267° |
| 2026-05-04 22:31 | -3.42731 | 37.06427 | 2941 ft | 8 kts | 267° |
| 2026-05-04 22:32 | -3.42733 | 37.06374 | 2941 ft | 8 kts | 267° |
| 2026-05-04 22:32 | -3.42736 | 37.06320 | 2941 ft | 9 kts | 268° |
| 2026-05-04 22:32 | -3.42740 | 37.06233 | 2931 ft | 15 kts | 267° |
| 2026-05-04 22:32 | -3.42745 | 37.06110 | 2934 ft | 20 kts | 267° |
| 2026-05-04 22:33 | -3.42751 | 37.05964 | 2933 ft | 21 kts | 268° |
| 2026-05-04 22:33 | -3.42820 | 37.05848 | 2931 ft | 21 kts | 195° |
| 2026-05-04 22:33 | -3.42948 | 37.05848 | 2932 ft | 17 kts | 178° |
| 2026-05-04 22:33 | -3.43005 | 37.05865 | 2931 ft | 6 kts | 116° |
| 2026-05-04 22:34 | -3.43010 | 37.05909 | 2931 ft | 6 kts | 89° |
| 2026-05-04 22:34 | -3.43006 | 37.06022 | 2934 ft | 43 kts | 87° |
| 2026-05-04 22:34 | -3.42982 | 37.06566 | 2935 ft | 113 kts | 87° |
| 2026-05-04 22:34 | -3.42938 | 37.07559 | 2939 ft | 176 kts | 87° |
| 2026-05-04 22:35 | -3.42884 | 37.08951 | 3010 ft | 217 kts | 86° |
| 2026-05-04 22:35 | -3.42824 | 37.10547 | 3257 ft | 230 kts | 87° |
| 2026-05-04 22:35 | -3.42770 | 37.12028 | 4483 ft | 204 kts | 88° |
| 2026-05-04 22:35 | -3.42703 | 37.13323 | 4825 ft | 218 kts | 88° |
| 2026-05-04 22:36 | -3.42697 | 37.13435 | 4822 ft | 219 kts | 88° |
| 2026-05-04 22:36 | -3.42621 | 37.14993 | 4961 ft | 230 kts | 88° |
| 2026-05-04 22:36 | -3.42544 | 37.16616 | 5199 ft | 237 kts | 89° |
| 2026-05-04 22:36 | -3.42468 | 37.18285 | 5498 ft | 243 kts | 89° |
| 2026-05-04 22:37 | -3.42537 | 37.19991 | 5676 ft | 251 kts | 110° |
| 2026-05-04 22:37 | -3.43534 | 37.21408 | 5864 ft | 257 kts | 147° |
| 2026-05-04 22:37 | -3.45239 | 37.21967 | 6089 ft | 268 kts | 179° |
| 2026-05-04 22:37 | -3.47110 | 37.21665 | 6364 ft | 279 kts | 201° |
| 2026-05-04 22:38 | -3.48778 | 37.20640 | 6806 ft | 287 kts | 223° |
| 2026-05-04 22:38 | -3.49913 | 37.18975 | 7197 ft | 297 kts | 250° |
| 2026-05-04 22:38 | -3.50402 | 37.16962 | 7586 ft | 301 kts | 257° |
| 2026-05-04 22:38 | -3.50846 | 37.14901 | 8074 ft | 304 kts | 256° |
| 2026-05-04 22:39 | -3.51339 | 37.12833 | 8624 ft | 306 kts | 255° |
| 2026-05-04 22:39 | -3.51866 | 37.10758 | 9174 ft | 308 kts | 254° |
| 2026-05-04 22:39 | -3.52412 | 37.08672 | 9678 ft | 312 kts | 254° |
| 2026-05-04 22:39 | -3.52967 | 37.06557 | 10165 ft | 316 kts | 256° |
| 2026-05-04 22:40 | -3.53331 | 37.04346 | 10321 ft | 332 kts | 265° |
| 2026-05-04 22:40 | -3.53453 | 37.01977 | 10477 ft | 349 kts | 268° |
| 2026-05-04 22:40 | -3.53510 | 36.99493 | 10615 ft | 366 kts | 269° |
| 2026-05-04 22:40 | -3.53568 | 36.96884 | 10785 ft | 382 kts | 268° |
| 2026-05-04 22:41 | -3.53644 | 36.94194 | 11213 ft | 390 kts | 268° |
| 2026-05-04 22:41 | -3.53738 | 36.91470 | 11696 ft | 395 kts | 268° |
| 2026-05-04 22:41 | -3.53846 | 36.88714 | 12266 ft | 398 kts | 268° |
| 2026-05-04 22:41 | -3.53964 | 36.85934 | 12818 ft | 401 kts | 268° |
| 2026-05-04 22:42 | -3.54087 | 36.83132 | 13401 ft | 404 kts | 268° |
| 2026-05-04 22:42 | -3.54214 | 36.80305 | 13946 ft | 408 kts | 268° |
| 2026-05-04 22:42 | -3.54341 | 36.77466 | 14412 ft | 411 kts | 268° |
| 2026-05-04 22:42 | -3.54470 | 36.74601 | 14897 ft | 414 kts | 268° |
| 2026-05-04 22:43 | -3.54598 | 36.71742 | 15329 ft | 418 kts | 268° |
| 2026-05-04 22:43 | -3.54729 | 36.68823 | 15753 ft | 421 kts | 268° |
| 2026-05-04 22:43 | -3.54860 | 36.65891 | 16246 ft | 423 kts | 268° |
| 2026-05-04 22:43 | -3.54991 | 36.62941 | 16718 ft | 426 kts | 268° |
| 2026-05-04 22:44 | -3.55124 | 36.59968 | 17119 ft | 430 kts | 268° |
| 2026-05-04 22:44 | -3.55258 | 36.56971 | 17515 ft | 434 kts | 268° |
| 2026-05-04 22:44 | -3.55392 | 36.53950 | 17989 ft | 435 kts | 268° |
| 2026-05-04 22:44 | -3.55339 | 36.50945 | 18313 ft | 435 kts | 280° |
| 2026-05-04 22:45 | -3.54365 | 36.48080 | 18523 ft | 436 kts | 299° |
| 2026-05-04 22:45 | -3.51516 | 36.42668 | 19030 ft | 445 kts | 297° |
| 2026-05-04 22:45 | -3.50158 | 36.39867 | 19305 ft | 449 kts | 296° |
| 2026-05-04 22:46 | -3.48816 | 36.37050 | 19751 ft | 449 kts | 296° |
| 2026-05-04 22:46 | -3.47473 | 36.34224 | 20119 ft | 450 kts | 296° |
| 2026-05-04 22:46 | -3.46115 | 36.31373 | 20330 ft | 456 kts | 296° |
| 2026-05-04 22:46 | -3.44741 | 36.28501 | 20720 ft | 457 kts | 296° |
| 2026-05-04 22:47 | -3.43367 | 36.25635 | 21092 ft | 459 kts | 296° |
| 2026-05-04 22:47 | -3.41978 | 36.22748 | 21421 ft | 461 kts | 296° |
| 2026-05-04 22:47 | -3.40585 | 36.19855 | 21806 ft | 462 kts | 296° |
| 2026-05-04 22:47 | -3.39190 | 36.16957 | 22113 ft | 464 kts | 296° |
| 2026-05-04 22:48 | -3.37781 | 36.14033 | 22394 ft | 468 kts | 295° |
| 2026-05-04 22:48 | -3.36368 | 36.11099 | 22700 ft | 470 kts | 295° |
| 2026-05-04 22:48 | -3.34943 | 36.08139 | 22992 ft | 473 kts | 295° |
| 2026-05-04 22:48 | -3.33510 | 36.05164 | 23289 ft | 475 kts | 295° |
| 2026-05-04 22:49 | -3.32074 | 36.02184 | 23585 ft | 477 kts | 295° |
| 2026-05-04 22:49 | -3.30632 | 35.99190 | 23849 ft | 480 kts | 295° |
| 2026-05-04 22:49 | -3.29179 | 35.96173 | 24093 ft | 481 kts | 295° |
| 2026-05-04 22:49 | -3.27721 | 35.93147 | 24362 ft | 483 kts | 295° |
| 2026-05-04 22:50 | -3.26262 | 35.90120 | 24637 ft | 484 kts | 295° |
| 2026-05-04 22:50 | -3.24798 | 35.87081 | 24890 ft | 486 kts | 295° |
| 2026-05-04 22:50 | -3.23328 | 35.84032 | 25136 ft | 487 kts | 295° |
| 2026-05-04 22:50 | -3.21855 | 35.80974 | 25384 ft | 489 kts | 295° |
| 2026-05-04 22:51 | -3.20373 | 35.77901 | 25637 ft | 491 kts | 295° |
| 2026-05-04 22:51 | -3.19389 | 35.75859 | 25787 ft | 492 kts | 295° |
| 2026-05-04 22:51 | -3.17903 | 35.72775 | 26040 ft | 493 kts | 295° |
| 2026-05-04 22:51 | -3.16409 | 35.69677 | 26269 ft | 495 kts | 295° |
| 2026-05-04 22:52 | -3.14911 | 35.66570 | 26498 ft | 497 kts | 295° |
| 2026-05-04 22:52 | -3.13407 | 35.63451 | 26727 ft | 498 kts | 295° |
| 2026-05-04 22:52 | -3.11899 | 35.60325 | 26970 ft | 500 kts | 295° |
| 2026-05-04 22:52 | -3.10389 | 35.57192 | 27210 ft | 501 kts | 296° |
| 2026-05-04 22:53 | -3.08872 | 35.54047 | 27383 ft | 503 kts | 296° |
| 2026-05-04 22:53 | -3.07346 | 35.50882 | 27596 ft | 505 kts | 296° |
| 2026-05-04 22:53 | -3.05818 | 35.47714 | 27819 ft | 506 kts | 296° |
| 2026-05-04 22:53 | -3.04287 | 35.44540 | 28033 ft | 508 kts | 296° |
| 2026-05-04 22:54 | -3.01906 | 35.37893 | 28221 ft | 512 kts | 283° |
| 2026-05-04 22:54 | -3.00414 | 35.30868 | 28192 ft | 519 kts | 281° |
| 2026-05-04 22:55 | -2.98908 | 35.23775 | 28182 ft | 526 kts | 282° |
| 2026-05-04 22:55 | -2.97260 | 35.16607 | 28174 ft | 529 kts | 283° |
| 2026-05-04 22:56 | -2.95559 | 35.09453 | 28160 ft | 530 kts | 283° |
| 2026-05-04 22:56 | -2.93850 | 35.02277 | 28154 ft | 530 kts | 283° |
| 2026-05-04 22:57 | -2.92153 | 34.95116 | 28154 ft | 528 kts | 283° |
| 2026-05-04 22:57 | -2.90462 | 34.87965 | 28152 ft | 527 kts | 283° |
| 2026-05-04 22:58 | -2.88774 | 34.80827 | 28156 ft | 527 kts | 283° |
| 2026-05-04 22:58 | -2.87090 | 34.73710 | 28146 ft | 526 kts | 283° |
| 2026-05-04 22:59 | -2.85401 | 34.66575 | 28128 ft | 526 kts | 283° |
| 2026-05-04 22:59 | -2.83727 | 34.59508 | 28129 ft | 526 kts | 283° |
| 2026-05-04 23:00 | -2.82042 | 34.52394 | 28116 ft | 526 kts | 283° |
| 2026-05-04 23:00 | -2.80356 | 34.45275 | 28121 ft | 526 kts | 283° |
| 2026-05-04 23:01 | -2.78665 | 34.38141 | 28102 ft | 527 kts | 283° |
| 2026-05-04 23:01 | -2.76976 | 34.31014 | 28097 ft | 527 kts | 283° |
| 2026-05-04 23:02 | -2.75284 | 34.23878 | 28088 ft | 527 kts | 283° |
| 2026-05-04 23:02 | -2.73591 | 34.16738 | 28088 ft | 527 kts | 283° |
| 2026-05-04 23:03 | -2.71899 | 34.09603 | 28095 ft | 527 kts | 283° |
| 2026-05-04 23:03 | -2.70208 | 34.02471 | 28095 ft | 527 kts | 283° |
| 2026-05-04 23:04 | -2.68517 | 33.95339 | 28083 ft | 527 kts | 283° |
| 2026-05-04 23:04 | -2.66836 | 33.88251 | 28079 ft | 527 kts | 283° |
| 2026-05-04 23:05 | -2.65143 | 33.81114 | 28085 ft | 527 kts | 283° |
| 2026-05-04 23:05 | -2.63451 | 33.73983 | 28092 ft | 527 kts | 283° |
| 2026-05-04 23:06 | -2.61747 | 33.66802 | 28075 ft | 527 kts | 283° |
| 2026-05-04 23:06 | -2.60052 | 33.59665 | 28072 ft | 527 kts | 283° |
| 2026-05-04 23:07 | -2.58359 | 33.52536 | 28083 ft | 527 kts | 283° |
| 2026-05-04 23:07 | -2.56658 | 33.45398 | 28083 ft | 527 kts | 283° |
| 2026-05-04 23:08 | -2.54963 | 33.38255 | 28065 ft | 528 kts | 283° |
| 2026-05-04 23:08 | -2.53271 | 33.31118 | 28067 ft | 528 kts | 283° |
| 2026-05-04 23:09 | -2.51584 | 33.24022 | 28074 ft | 528 kts | 283° |
| 2026-05-04 23:09 | -2.49884 | 33.16878 | 28064 ft | 528 kts | 283° |
| 2026-05-04 23:10 | -2.48187 | 33.09741 | 28050 ft | 528 kts | 283° |
| 2026-05-04 23:10 | -2.46487 | 33.02596 | 28056 ft | 528 kts | 283° |
| 2026-05-04 23:11 | -2.44788 | 32.95453 | 28043 ft | 528 kts | 283° |
| 2026-05-04 23:11 | -2.43196 | 32.88288 | 28058 ft | 528 kts | 281° |
| 2026-05-04 23:12 | -2.41837 | 32.81084 | 28056 ft | 527 kts | 280° |
| 2026-05-04 23:12 | -2.40438 | 32.73881 | 28044 ft | 528 kts | 281° |
| 2026-05-04 23:13 | -2.39064 | 32.66674 | 28029 ft | 527 kts | 279° |
| 2026-05-04 23:13 | -2.37895 | 32.59437 | 28016 ft | 528 kts | 278° |
| 2026-05-04 23:14 | -2.36754 | 32.52185 | 28020 ft | 528 kts | 279° |
| 2026-05-04 23:14 | -2.35586 | 32.44973 | 28003 ft | 528 kts | 279° |
| 2026-05-04 23:15 | -2.34393 | 32.37735 | 27988 ft | 528 kts | 279° |
| 2026-05-04 23:15 | -2.33794 | 32.34115 | 27984 ft | 528 kts | 279° |
| 2026-05-04 23:15 | -2.33195 | 32.30490 | 27993 ft | 528 kts | 279° |
| 2026-05-04 23:16 | -2.32597 | 32.26872 | 27968 ft | 528 kts | 279° |
| 2026-05-04 23:16 | -2.31999 | 32.23244 | 27969 ft | 528 kts | 279° |
| 2026-05-04 23:16 | -2.31401 | 32.19618 | 27986 ft | 528 kts | 279° |
| 2026-05-04 23:16 | -2.30804 | 32.16002 | 27956 ft | 528 kts | 279° |
| 2026-05-04 23:17 | -2.30213 | 32.12414 | 27957 ft | 528 kts | 279° |
| 2026-05-04 23:17 | -2.29616 | 32.08796 | 27971 ft | 528 kts | 279° |
| 2026-05-04 23:17 | -2.29017 | 32.05166 | 27963 ft | 528 kts | 279° |
| 2026-05-04 23:17 | -2.28420 | 32.01546 | 27952 ft | 528 kts | 279° |
| 2026-05-04 23:18 | -2.27823 | 31.97929 | 27947 ft | 528 kts | 279° |
| 2026-05-04 23:18 | -2.27224 | 31.94303 | 27948 ft | 528 kts | 279° |
| 2026-05-04 23:18 | -2.26627 | 31.90688 | 27958 ft | 528 kts | 279° |
| 2026-05-04 23:18 | -2.26029 | 31.87069 | 27948 ft | 528 kts | 279° |
| 2026-05-04 23:19 | -2.25431 | 31.83449 | 27959 ft | 527 kts | 279° |
| 2026-05-04 23:19 | -2.24834 | 31.79832 | 27946 ft | 528 kts | 279° |
| 2026-05-04 23:19 | -2.24235 | 31.76210 | 27946 ft | 528 kts | 279° |
| 2026-05-04 23:19 | -2.23638 | 31.72593 | 27954 ft | 528 kts | 279° |
| 2026-05-04 23:20 | -2.23040 | 31.68979 | 27963 ft | 528 kts | 279° |
| 2026-05-04 23:20 | -2.22449 | 31.65399 | 27964 ft | 528 kts | 279° |
| 2026-05-04 23:20 | -2.21843 | 31.61736 | 27963 ft | 528 kts | 279° |
| 2026-05-04 23:20 | -2.21252 | 31.58158 | 27964 ft | 529 kts | 279° |
| 2026-05-04 23:21 | -2.20652 | 31.54532 | 27974 ft | 529 kts | 279° |
| 2026-05-04 23:21 | -2.20053 | 31.50912 | 27995 ft | 529 kts | 279° |
| 2026-05-04 23:21 | -2.19453 | 31.47283 | 27979 ft | 529 kts | 279° |
| 2026-05-04 23:21 | -2.18850 | 31.43641 | 27995 ft | 529 kts | 279° |
| 2026-05-04 23:22 | -2.18249 | 31.40007 | 27996 ft | 530 kts | 279° |
| 2026-05-04 23:22 | -2.17648 | 31.36378 | 28004 ft | 530 kts | 279° |
| 2026-05-04 23:22 | -2.17047 | 31.32745 | 27993 ft | 530 kts | 279° |
| 2026-05-04 23:22 | -2.16445 | 31.29109 | 28003 ft | 530 kts | 279° |
| 2026-05-04 23:23 | -2.15241 | 31.21838 | 28003 ft | 530 kts | 279° |
| 2026-05-04 23:23 | -2.14036 | 31.14562 | 28031 ft | 530 kts | 279° |
| 2026-05-04 23:24 | -2.12830 | 31.07285 | 28027 ft | 531 kts | 279° |
| 2026-05-04 23:24 | -2.11625 | 31.00010 | 28038 ft | 531 kts | 279° |
| 2026-05-04 23:25 | -2.10418 | 30.92727 | 28079 ft | 531 kts | 279° |
| 2026-05-04 23:25 | -2.09200 | 30.85448 | 28073 ft | 530 kts | 279° |
| 2026-05-04 23:26 | -2.07949 | 30.78182 | 28078 ft | 530 kts | 280° |
| 2026-05-04 23:26 | -2.06697 | 30.70934 | 28089 ft | 529 kts | 280° |
| 2026-05-04 23:27 | -2.05450 | 30.63676 | 28090 ft | 529 kts | 280° |
| 2026-05-04 23:27 | -2.04205 | 30.56420 | 28097 ft | 529 kts | 280° |
| 2026-05-04 23:28 | -2.02962 | 30.49173 | 28110 ft | 529 kts | 280° |
| 2026-05-04 23:28 | -2.01717 | 30.41924 | 28125 ft | 529 kts | 280° |
| 2026-05-04 23:29 | -2.00470 | 30.34677 | 28159 ft | 529 kts | 280° |
| 2026-05-04 23:29 | -1.99172 | 30.27431 | 28177 ft | 530 kts | 281° |
| 2026-05-04 23:30 | -1.97862 | 30.20176 | 28188 ft | 530 kts | 280° |
| 2026-05-04 23:30 | -1.96404 | 30.12957 | 28181 ft | 530 kts | 287° |
| 2026-05-04 23:31 | -1.94124 | 30.05945 | 28196 ft | 530 kts | 289° |
| 2026-05-04 23:31 | -1.91835 | 29.98942 | 28150 ft | 530 kts | 288° |
| 2026-05-04 23:32 | -1.89602 | 29.91921 | 28159 ft | 530 kts | 288° |
| 2026-05-04 23:32 | -1.87360 | 29.84899 | 28151 ft | 530 kts | 288° |
| 2026-05-04 23:33 | -1.85116 | 29.77880 | 28161 ft | 530 kts | 288° |
| 2026-05-04 23:33 | -1.82873 | 29.70868 | 28160 ft | 530 kts | 288° |
| 2026-05-04 23:34 | -1.80632 | 29.63859 | 28163 ft | 529 kts | 288° |
| 2026-05-04 23:34 | -1.78394 | 29.56855 | 28145 ft | 529 kts | 288° |
| 2026-05-04 23:35 | -1.76153 | 29.49847 | 28147 ft | 529 kts | 288° |
| 2026-05-04 23:35 | -1.73912 | 29.42846 | 28125 ft | 529 kts | 288° |
| 2026-05-04 23:36 | -1.72045 | 29.37030 | 28137 ft | 529 kts | 288° |
| 2026-05-04 23:36 | -1.69801 | 29.30032 | 28121 ft | 529 kts | 288° |
| 2026-05-04 23:37 | -1.67405 | 29.23086 | 28090 ft | 529 kts | 294° |
| 2026-05-04 23:37 | -1.63516 | 29.15510 | 28096 ft | 528 kts | 299° |
| 2026-05-04 23:38 | -1.60639 | 29.10064 | 28087 ft | 529 kts | 298° |
| 2026-05-04 23:38 | -1.57262 | 29.03532 | 28093 ft | 529 kts | 298° |
| 2026-05-04 23:39 | -1.53845 | 28.97020 | 28067 ft | 530 kts | 300° |
| 2026-05-04 23:39 | -1.50254 | 28.90594 | 28073 ft | 528 kts | 300° |
| 2026-05-04 23:40 | -1.46653 | 28.84194 | 28059 ft | 528 kts | 300° |
| 2026-05-04 23:40 | -1.43084 | 28.77790 | 28033 ft | 527 kts | 300° |
| 2026-05-04 23:41 | -1.39532 | 28.71385 | 28030 ft | 527 kts | 300° |
| 2026-05-04 23:41 | -1.35982 | 28.64985 | 28009 ft | 526 kts | 300° |
| 2026-05-04 23:42 | -1.32456 | 28.58633 | 28004 ft | 525 kts | 300° |
| 2026-05-04 23:42 | -1.28913 | 28.52251 | 27982 ft | 525 kts | 300° |
| 2026-05-04 23:43 | -1.27141 | 28.49060 | 27987 ft | 525 kts | 300° |
| 2026-05-04 23:43 | -1.25371 | 28.45872 | 27992 ft | 525 kts | 300° |
| 2026-05-04 23:43 | -1.23600 | 28.42682 | 27961 ft | 525 kts | 300° |
| 2026-05-04 23:43 | -1.21829 | 28.39488 | 27958 ft | 525 kts | 300° |
| 2026-05-04 23:44 | -1.20060 | 28.36295 | 27964 ft | 525 kts | 300° |
| 2026-05-04 23:44 | -1.18292 | 28.33101 | 27969 ft | 525 kts | 300° |
| 2026-05-04 23:44 | -1.16526 | 28.29912 | 27949 ft | 525 kts | 300° |
| 2026-05-04 23:44 | -1.14756 | 28.26721 | 27945 ft | 525 kts | 300° |
| 2026-05-04 23:45 | -1.12985 | 28.23533 | 27948 ft | 525 kts | 300° |
| 2026-05-04 23:45 | -1.11213 | 28.20349 | 27948 ft | 525 kts | 300° |
| 2026-05-04 23:45 | -1.09440 | 28.17160 | 27929 ft | 524 kts | 300° |
| 2026-05-04 23:45 | -1.07671 | 28.13981 | 27938 ft | 524 kts | 300° |
| 2026-05-04 23:46 | -1.05899 | 28.10795 | 27935 ft | 525 kts | 300° |
| 2026-05-04 23:46 | -1.04126 | 28.07605 | 27929 ft | 525 kts | 300° |
| 2026-05-04 23:46 | -1.02353 | 28.04414 | 27927 ft | 524 kts | 300° |
| 2026-05-04 23:46 | -1.00586 | 28.01236 | 27927 ft | 524 kts | 300° |
| 2026-05-04 23:47 | -0.98817 | 27.98055 | 27927 ft | 523 kts | 300° |
| 2026-05-04 23:47 | -0.97049 | 27.94872 | 27921 ft | 523 kts | 300° |
| 2026-05-04 23:47 | -0.95288 | 27.91705 | 27927 ft | 522 kts | 300° |
| 2026-05-04 23:47 | -0.93524 | 27.88532 | 27927 ft | 522 kts | 300° |
| 2026-05-04 23:48 | -0.91761 | 27.85360 | 27913 ft | 521 kts | 300° |
| 2026-05-04 23:48 | -0.90000 | 27.82193 | 27926 ft | 521 kts | 300° |
| 2026-05-04 23:48 | -0.88242 | 27.79030 | 27920 ft | 521 kts | 300° |
| 2026-05-04 23:48 | -0.86481 | 27.75863 | 27920 ft | 521 kts | 300° |
| 2026-05-04 23:49 | -0.84722 | 27.72699 | 27923 ft | 521 kts | 300° |
| 2026-05-04 23:49 | -0.82961 | 27.69533 | 27923 ft | 521 kts | 300° |
| 2026-05-04 23:49 | -0.81200 | 27.66366 | 27921 ft | 522 kts | 300° |
| 2026-05-04 23:49 | -0.79438 | 27.63197 | 27923 ft | 522 kts | 300° |
| 2026-05-04 23:50 | -0.77674 | 27.60024 | 27925 ft | 522 kts | 300° |
| 2026-05-04 23:50 | -0.75913 | 27.56855 | 27933 ft | 524 kts | 300° |
| 2026-05-04 23:50 | -0.74140 | 27.53666 | 28098 ft | 524 kts | 300° |
| 2026-05-04 23:50 | -0.72372 | 27.50487 | 28378 ft | 523 kts | 300° |
| 2026-05-04 23:51 | -0.70611 | 27.47320 | 28694 ft | 521 kts | 300° |
| 2026-05-04 23:51 | -0.68855 | 27.44163 | 29067 ft | 518 kts | 300° |
| 2026-05-04 23:51 | -0.67110 | 27.41023 | 29403 ft | 516 kts | 300° |
| 2026-05-04 23:51 | -0.65372 | 27.37896 | 29716 ft | 514 kts | 300° |
| 2026-05-04 23:52 | -0.63634 | 27.34772 | 29846 ft | 515 kts | 300° |
| 2026-05-04 23:52 | -0.61892 | 27.31642 | 29897 ft | 516 kts | 300° |
| 2026-05-04 23:52 | -0.58410 | 27.25380 | 29917 ft | 515 kts | 300° |
| 2026-05-04 23:53 | -0.54936 | 27.19134 | 29924 ft | 513 kts | 300° |
| 2026-05-04 23:53 | -0.51470 | 27.12902 | 29918 ft | 512 kts | 300° |
| 2026-05-04 23:54 | -0.48033 | 27.06722 | 29919 ft | 512 kts | 300° |
| 2026-05-04 23:54 | -0.44553 | 27.00465 | 29918 ft | 512 kts | 300° |
| 2026-05-04 23:55 | -0.41115 | 26.94285 | 29913 ft | 512 kts | 300° |
| 2026-05-04 23:56 | -0.35919 | 26.84942 | 29919 ft | 513 kts | 300° |
| 2026-05-04 23:56 | -0.32452 | 26.78709 | 29908 ft | 514 kts | 300° |
| 2026-05-04 23:57 | -0.28980 | 26.72468 | 29913 ft | 514 kts | 300° |
| 2026-05-04 23:57 | -0.25512 | 26.66232 | 29906 ft | 514 kts | 300° |
| 2026-05-04 23:58 | -0.22040 | 26.59992 | 29910 ft | 513 kts | 300° |
| 2026-05-04 23:58 | -0.18575 | 26.53761 | 29917 ft | 513 kts | 300° |
| 2026-05-04 23:59 | -0.15110 | 26.47533 | 29906 ft | 513 kts | 300° |
| 2026-05-04 23:59 | -0.11645 | 26.41303 | 29903 ft | 513 kts | 300° |
| 2026-05-05 00:00 | -0.08183 | 26.35079 | 29904 ft | 512 kts | 300° |
| 2026-05-05 00:00 | -0.04723 | 26.28858 | 29908 ft | 512 kts | 300° |
| 2026-05-05 00:01 | -0.01259 | 26.22632 | 29908 ft | 512 kts | 301° |
| 2026-05-05 00:01 | 0.02203 | 26.16409 | 29905 ft | 512 kts | 300° |
| 2026-05-05 00:02 | 0.05661 | 26.10189 | 29900 ft | 512 kts | 300° |
| 2026-05-05 00:02 | 0.09114 | 26.03990 | 29896 ft | 512 kts | 301° |
| 2026-05-05 00:03 | 0.12595 | 25.97787 | 29900 ft | 512 kts | 301° |
| 2026-05-05 00:03 | 0.16075 | 25.91595 | 29900 ft | 511 kts | 301° |
| 2026-05-05 00:04 | 0.19529 | 25.85439 | 29891 ft | 511 kts | 301° |
| 2026-05-05 00:04 | 0.23002 | 25.79244 | 29891 ft | 511 kts | 301° |
| 2026-05-05 00:05 | 0.26469 | 25.73061 | 29893 ft | 511 kts | 301° |
| 2026-05-05 00:05 | 0.29941 | 25.66868 | 29893 ft | 510 kts | 301° |
| 2026-05-05 00:06 | 0.33410 | 25.60681 | 29900 ft | 510 kts | 300° |
| 2026-05-05 00:06 | 0.36875 | 25.54502 | 29893 ft | 510 kts | 300° |
| 2026-05-05 00:07 | 0.40340 | 25.48321 | 29890 ft | 510 kts | 300° |
| 2026-05-05 00:07 | 0.43807 | 25.42135 | 29895 ft | 510 kts | 300° |
| 2026-05-05 00:08 | 0.47271 | 25.35956 | 29886 ft | 510 kts | 300° |
| 2026-05-05 00:08 | 0.50157 | 25.29485 | 29889 ft | 511 kts | 289° |
| 2026-05-05 00:09 | 0.51937 | 25.22610 | 29900 ft | 512 kts | 284° |
| 2026-05-05 00:09 | 0.53567 | 25.15676 | 29892 ft | 513 kts | 284° |
| 2026-05-05 00:10 | 0.55237 | 25.08746 | 29886 ft | 514 kts | 284° |
| 2026-05-05 00:10 | 0.56934 | 25.01810 | 29882 ft | 514 kts | 284° |
| 2026-05-05 00:11 | 0.58638 | 24.94861 | 29884 ft | 516 kts | 284° |
| 2026-05-05 00:11 | 0.60346 | 24.87884 | 29893 ft | 518 kts | 284° |
| 2026-05-05 00:12 | 0.62057 | 24.80886 | 29891 ft | 519 kts | 284° |
| 2026-05-05 00:12 | 0.63773 | 24.73868 | 29883 ft | 521 kts | 284° |
| 2026-05-05 00:13 | 0.65491 | 24.66838 | 29886 ft | 521 kts | 284° |
| 2026-05-05 00:13 | 0.67210 | 24.59807 | 29883 ft | 521 kts | 284° |
| 2026-05-05 00:14 | 0.68926 | 24.52788 | 29881 ft | 520 kts | 284° |
| 2026-05-05 00:14 | 0.70658 | 24.45787 | 29884 ft | 518 kts | 284° |
| 2026-05-05 00:15 | 0.72399 | 24.38802 | 29883 ft | 518 kts | 284° |
| 2026-05-05 00:15 | 0.74136 | 24.31820 | 29885 ft | 517 kts | 284° |
| 2026-05-05 00:16 | 0.75868 | 24.24849 | 29885 ft | 517 kts | 284° |
| 2026-05-05 00:16 | 0.77601 | 24.17866 | 29885 ft | 518 kts | 284° |
| 2026-05-05 00:17 | 0.79323 | 24.10928 | 29883 ft | 518 kts | 284° |
| 2026-05-05 00:17 | 0.81058 | 24.03937 | 29883 ft | 519 kts | 284° |
| 2026-05-05 00:18 | 0.82795 | 23.96940 | 29884 ft | 519 kts | 284° |
| 2026-05-05 00:18 | 0.84534 | 23.89932 | 29885 ft | 520 kts | 284° |
| 2026-05-05 00:19 | 0.86273 | 23.82924 | 29890 ft | 520 kts | 284° |
| 2026-05-05 00:19 | 0.88014 | 23.75908 | 29885 ft | 520 kts | 284° |
| 2026-05-05 00:20 | 0.89754 | 23.68894 | 29889 ft | 520 kts | 284° |
| 2026-05-05 00:20 | 0.91492 | 23.61887 | 29886 ft | 519 kts | 284° |
| 2026-05-05 00:21 | 0.93227 | 23.54896 | 29886 ft | 519 kts | 284° |
| 2026-05-05 00:21 | 0.94966 | 23.47897 | 29894 ft | 518 kts | 284° |
| 2026-05-05 00:22 | 0.96704 | 23.40908 | 29889 ft | 518 kts | 284° |
| 2026-05-05 00:22 | 0.98430 | 23.33924 | 29890 ft | 518 kts | 284° |
| 2026-05-05 00:23 | 0.99866 | 23.28119 | 29889 ft | 518 kts | 284° |
| 2026-05-05 00:23 | 1.01598 | 23.21136 | 29894 ft | 517 kts | 284° |
| 2026-05-05 00:24 | 1.03330 | 23.14154 | 29890 ft | 518 kts | 284° |
| 2026-05-05 00:24 | 1.05060 | 23.07175 | 29900 ft | 517 kts | 284° |
| 2026-05-05 00:25 | 1.06789 | 23.00201 | 29894 ft | 517 kts | 284° |
| 2026-05-05 00:25 | 1.08514 | 22.93242 | 29892 ft | 516 kts | 284° |
| 2026-05-05 00:26 | 1.10237 | 22.86291 | 29894 ft | 515 kts | 284° |
| 2026-05-05 00:26 | 1.11960 | 22.79338 | 29892 ft | 515 kts | 284° |
| 2026-05-05 00:27 | 1.13681 | 22.72388 | 29895 ft | 515 kts | 285° |
| 2026-05-05 00:27 | 1.15403 | 22.65441 | 29895 ft | 515 kts | 285° |
| 2026-05-05 00:28 | 1.17127 | 22.58481 | 29894 ft | 516 kts | 285° |
| 2026-05-05 00:28 | 1.18851 | 22.51518 | 29894 ft | 516 kts | 285° |
| 2026-05-05 00:29 | 1.20577 | 22.44550 | 29891 ft | 517 kts | 285° |
| 2026-05-05 00:29 | 1.22301 | 22.37586 | 29893 ft | 517 kts | 285° |
| 2026-05-05 00:30 | 1.24029 | 22.30606 | 29897 ft | 517 kts | 285° |
| 2026-05-05 00:30 | 1.25753 | 22.23639 | 29897 ft | 517 kts | 285° |
| 2026-05-05 00:31 | 1.27480 | 22.16664 | 29897 ft | 517 kts | 285° |
| 2026-05-05 00:31 | 1.29202 | 22.09692 | 29890 ft | 517 kts | 284° |
| 2026-05-05 00:32 | 1.30922 | 22.02719 | 29891 ft | 517 kts | 284° |
| 2026-05-05 00:32 | 1.32640 | 21.95753 | 29890 ft | 517 kts | 284° |
| 2026-05-05 00:33 | 1.34348 | 21.88826 | 29894 ft | 516 kts | 284° |
| 2026-05-05 00:33 | 1.36065 | 21.81864 | 29894 ft | 516 kts | 284° |
| 2026-05-05 00:34 | 1.37786 | 21.74887 | 29893 ft | 516 kts | 284° |
| 2026-05-05 00:34 | 1.39504 | 21.67918 | 29894 ft | 517 kts | 284° |
| 2026-05-05 00:35 | 1.41219 | 21.60959 | 29892 ft | 517 kts | 284° |
| 2026-05-05 00:35 | 1.42938 | 21.53982 | 29889 ft | 517 kts | 284° |
| 2026-05-05 00:36 | 1.44654 | 21.47005 | 29894 ft | 517 kts | 284° |
| 2026-05-05 00:36 | 1.46361 | 21.40021 | 29889 ft | 518 kts | 284° |
| 2026-05-05 00:37 | 1.48067 | 21.33036 | 29892 ft | 518 kts | 284° |
| 2026-05-05 00:37 | 1.49777 | 21.26040 | 29885 ft | 518 kts | 284° |
| 2026-05-05 00:38 | 1.51484 | 21.19057 | 29885 ft | 518 kts | 284° |
| 2026-05-05 00:38 | 1.53192 | 21.12067 | 29881 ft | 518 kts | 284° |
| 2026-05-05 00:39 | 1.54902 | 21.05072 | 29892 ft | 518 kts | 284° |